Location Regina, SK, CA

ob CSKREGIN1 231930Z AUTO 31004G11KT BKN 23/11 A2964 RMK SLPNO 

2019.09.23 1930 UTC
Wind from the NW (305 degrees) at 4.6 MPH (4 KT) gusting to 12.7 MPH (11 KT)
Visibility    Mile(s)
Sky Conditions  mostly cloudy
Temperature 73.4 F (23 C)
Dew Point 52.5 F (11 C)
Relative Humidity 48%
Pressure   29.640 in. Hg (1004 hPa)
Rain  0.00 in.
Daily Rain 0.000 in.

Station Name  NWR Weather
Longitude, Latitude  -104.67, 50.5
Elevation 1894
Station URL http://users.accesscomm.ca/saskweather/station.htm
Software Type WeatherDisplay:10.37S